CTO weather

Calverton Executive Airpark
Calverton, New York, United States

Public forecast

Using degrees Fahrenheit for public forecast. Weather courtesy of forecast.io.

Closest aviation weather report (METAR) to Calverton Executive Airpark

Closest report is Brookhaven Airport, 6.6 nm (12.2 km) SSW. Retrieved 2020/06/01 21:56 UTC (21 minutes ago):

KHWV 012156Z AUTO 22011G18KT 10SM SCT080 BKN100 OVC110 17/06 A3009 RMK AO2 SLP189 T01720061 TSNO

Closest aviation forecast (TAF) to Calverton Executive Airpark

Closest forecast is Long Island Mac Arthur Airport, 15.7 nm (29.2 km) WSW. Retrieved 2020/06/01 18:39 UTC (4 hours ago):

TAF KISP 011736Z 0118/0218 27011G18KT P6SM SCT070 SCT100 FM012100 23011G18KT P6SM SCT070 SCT100 FM020000 27004KT P6SM SCT100 BKN150 FM021600 23011G18KT P6SM SCT040 BKN070